sensor_id;sensor_type;location;lat;lon;timestamp;pressure;altitude;pressure_sealevel;temperature;humidity
19150;BME280;9707;49.158;8.632;2022-12-29T00:01:04;99858.53;;;19.23;36.39
19150;BME280;9707;49.158;8.632;2022-12-29T00:03:29;99859.38;;;19.24;36.38
19150;BME280;9707;49.158;8.632;2022-12-29T00:05:56;99862.06;;;19.24;36.60
19150;BME280;9707;49.158;8.632;2022-12-29T00:08:22;99860.25;;;19.24;36.68
19150;BME280;9707;49.158;8.632;2022-12-29T00:11:05;99866.50;;;19.25;36.68
19150;BME280;9707;49.158;8.632;2022-12-29T00:13:30;99857.44;;;19.26;36.39
19150;BME280;9707;49.158;8.632;2022-12-29T00:16:14;99861.13;;;19.25;36.44
19150;BME280;9707;49.158;8.632;2022-12-29T00:18:39;99860.25;;;19.24;36.38
19150;BME280;9707;49.158;8.632;2022-12-29T00:21:05;99861.13;;;19.25;36.44
19150;BME280;9707;49.158;8.632;2022-12-29T00:23:48;99861.13;;;19.25;36.52
19150;BME280;9707;49.158;8.632;2022-12-29T00:26:32;99853.97;;;19.24;36.54
19150;BME280;9707;49.158;8.632;2022-12-29T00:29:16;99859.38;;;19.24;36.63
19150;BME280;9707;49.158;8.632;2022-12-29T00:32:00;99862.06;;;19.24;36.47
19150;BME280;9707;49.158;8.632;2022-12-29T00:34:44;99864.78;;;19.24;36.86
19150;BME280;9707;49.158;8.632;2022-12-29T00:37:28;99871.03;;;19.24;36.73
19150;BME280;9707;49.158;8.632;2022-12-29T00:40:12;99869.22;;;19.25;36.50
19150;BME280;9707;49.158;8.632;2022-12-29T00:42:56;99864.78;;;19.24;36.36
19150;BME280;9707;49.158;8.632;2022-12-29T00:45:41;99870.16;;;19.24;36.73
19150;BME280;9707;49.158;8.632;2022-12-29T00:48:06;99870.16;;;19.24;36.71
19150;BME280;9707;49.158;8.632;2022-12-29T00:50:31;99872.75;;;19.25;36.55
19150;BME280;9707;49.158;8.632;2022-12-29T00:52:57;99871.91;;;19.25;36.55
19150;BME280;9707;49.158;8.632;2022-12-29T00:55:22;99872.75;;;19.25;36.46
19150;BME280;9707;49.158;8.632;2022-12-29T00:57:47;99877.31;;;19.25;36.33
19150;BME280;9707;49.158;8.632;2022-12-29T01:00:13;99880.84;;;19.25;36.65
19150;BME280;9707;49.158;8.632;2022-12-29T01:02:38;99877.31;;;19.25;36.94
19150;BME280;9707;49.158;8.632;2022-12-29T01:05:04;99880.72;;;19.27;36.61
19150;BME280;9707;49.158;8.632;2022-12-29T01:07:29;99880.72;;;19.27;36.51
19150;BME280;9707;49.158;8.632;2022-12-29T01:09:54;99882.72;;;19.25;36.71
19150;BME280;9707;49.158;8.632;2022-12-29T01:12:34;99895.34;;;19.24;36.83
19150;BME280;9707;49.158;8.632;2022-12-29T01:15:08;99894.47;;;19.24;37.14
19150;BME280;9707;49.158;8.632;2022-12-29T01:17:33;99892.66;;;19.24;37.17
19150;BME280;9707;49.158;8.632;2022-12-29T01:19:59;99895.22;;;19.26;37.33
19150;BME280;9707;49.158;8.632;2022-12-29T01:22:24;99887.97;;;19.26;37.02
19150;BME280;9707;49.158;8.632;2022-12-29T01:24:49;99895.09;;;19.27;37.18
19150;BME280;9707;49.158;8.632;2022-12-29T01:27:14;99879.88;;;19.26;37.05
19150;BME280;9707;49.158;8.632;2022-12-29T01:29:40;99888.84;;;19.27;37.18
19150;BME280;9707;49.158;8.632;2022-12-29T01:32:05;99881.72;;;19.26;37.34
19150;BME280;9707;49.158;8.632;2022-12-29T01:34:30;99874.63;;;19.25;37.30
19150;BME280;9707;49.158;8.632;2022-12-29T01:36:55;99877.31;;;19.25;37.46
19150;BME280;9707;49.158;8.632;2022-12-29T01:39:21;99872.88;;;19.24;37.44
19150;BME280;9707;49.158;8.632;2022-12-29T01:41:46;99880.97;;;19.24;37.56
19150;BME280;9707;49.158;8.632;2022-12-29T01:47:20;99880.13;;;19.23;37.70
19150;BME280;9707;49.158;8.632;2022-12-29T01:49:47;99876.44;;;19.24;37.80
19150;BME280;9707;49.158;8.632;2022-12-29T01:52:12;99880.63;;;19.28;37.77
19150;BME280;9707;49.158;8.632;2022-12-29T01:54:43;99880.50;;;19.30;37.74
19150;BME280;9707;49.158;8.632;2022-12-29T01:57:16;99891.03;;;19.33;37.83
19150;BME280;9707;49.158;8.632;2022-12-29T02:00:15;99878.28;;;19.35;37.88
19150;BME280;9707;49.158;8.632;2022-12-29T02:02:46;99878.28;;;19.35;37.61
19150;BME280;9707;49.158;8.632;2022-12-29T02:05:25;99879.13;;;19.35;37.78
19150;BME280;9707;49.158;8.632;2022-12-29T02:07:52;99879.97;;;19.36;37.84
19150;BME280;9707;49.158;8.632;2022-12-29T02:10:21;99881.69;;;19.37;37.71
19150;BME280;9707;49.158;8.632;2022-12-29T02:12:46;99878.75;;;19.40;37.69
19150;BME280;9707;49.158;8.632;2022-12-29T02:15:12;99877.00;;;19.39;37.61
19150;BME280;9707;49.158;8.632;2022-12-29T02:26:12;99858.97;;;19.39;37.58
19150;BME280;9707;49.158;8.632;2022-12-29T02:29:01;99858.09;;;19.39;37.70
19150;BME280;9707;49.158;8.632;2022-12-29T02:34:48;99860.69;;;19.40;37.87
19150;BME280;9707;49.158;8.632;2022-12-29T02:42:48;99863.25;;;19.42;37.73
19150;BME280;9707;49.158;8.632;2022-12-29T02:48:09;99852.47;;;19.42;37.46
19150;BME280;9707;49.158;8.632;2022-12-29T02:50:43;99848.06;;;19.41;37.47
19150;BME280;9707;49.158;8.632;2022-12-29T02:53:13;99850.75;;;19.41;37.74
19150;BME280;9707;49.158;8.632;2022-12-29T02:55:47;99850.75;;;19.41;37.55
19150;BME280;9707;49.158;8.632;2022-12-29T02:58:22;99847.06;;;19.42;37.71
19150;BME280;9707;49.158;8.632;2022-12-29T03:03:41;99847.06;;;19.42;37.68
19150;BME280;9707;49.158;8.632;2022-12-29T03:08:55;99848.78;;;19.43;37.98
19150;BME280;9707;49.158;8.632;2022-12-29T03:11:28;99838.84;;;19.43;37.88
19150;BME280;9707;49.158;8.632;2022-12-29T03:17:09;99817.34;;;19.42;37.91
19150;BME280;9707;49.158;8.632;2022-12-29T03:19:42;99832.56;;;19.43;37.98
19150;BME280;9707;49.158;8.632;2022-12-29T03:22:15;99818.06;;;19.44;38.17
19150;BME280;9707;49.158;8.632;2022-12-29T03:25:10;99822.50;;;19.45;38.06
19150;BME280;9707;49.158;8.632;2022-12-29T03:27:45;99826.91;;;19.46;38.11
19150;BME280;9707;49.158;8.632;2022-12-29T03:30:12;99818.69;;;19.47;38.20
19150;BME280;9707;49.158;8.632;2022-12-29T03:32:46;99809.59;;;19.48;37.93
19150;BME280;9707;49.158;8.632;2022-12-29T03:35:16;99813.13;;;19.49;37.70
19150;BME280;9707;49.158;8.632;2022-12-29T03:37:50;99816.00;;;19.47;37.67
19150;BME280;9707;49.158;8.632;2022-12-29T03:40:18;99806.16;;;19.46;37.68
19150;BME280;9707;49.158;8.632;2022-12-29T03:42:46;99802.59;;;19.46;37.51
19150;BME280;9707;49.158;8.632;2022-12-29T03:45:13;99797.22;;;19.46;37.56
19150;BME280;9707;49.158;8.632;2022-12-29T03:47:38;99793.63;;;19.45;37.65
19150;BME280;9707;49.158;8.632;2022-12-29T03:50:04;99779.13;;;19.46;37.83
19150;BME280;9707;49.158;8.632;2022-12-29T03:52:29;99782.72;;;19.47;37.57
19150;BME280;9707;49.158;8.632;2022-12-29T03:54:54;99777.31;;;19.47;37.39
19150;BME280;9707;49.158;8.632;2022-12-29T03:57:20;99762.09;;;19.46;37.76
19150;BME280;9707;49.158;8.632;2022-12-29T03:59:45;99762.09;;;19.46;37.15
19150;BME280;9707;49.158;8.632;2022-12-29T04:02:10;99757.69;;;19.45;37.07
19150;BME280;9707;49.158;8.632;2022-12-29T04:04:35;99757.81;;;19.43;37.20
19150;BME280;9707;49.158;8.632;2022-12-29T04:07:01;99745.28;;;19.42;37.11
19150;BME280;9707;49.158;8.632;2022-12-29T04:09:26;99744.41;;;19.42;36.94
19150;BME280;9707;49.158;8.632;2022-12-29T04:11:51;99749.94;;;19.40;36.89
19150;BME280;9707;49.158;8.632;2022-12-29T04:14:17;99750.06;;;19.39;36.81
19150;BME280;9707;49.158;8.632;2022-12-29T04:16:42;99756.47;;;19.38;36.70
19150;BME280;9707;49.158;8.632;2022-12-29T04:19:07;99752.94;;;19.37;36.99
19150;BME280;9707;49.158;8.632;2022-12-29T04:21:33;99743.97;;;19.37;36.92
19150;BME280;9707;49.158;8.632;2022-12-29T04:23:59;99741.25;;;19.37;36.83
19150;BME280;9707;49.158;8.632;2022-12-29T04:26:24;99754.63;;;19.38;36.85
19150;BME280;9707;49.158;8.632;2022-12-29T04:28:50;99746.66;;;19.37;36.68
19150;BME280;9707;49.158;8.632;2022-12-29T04:31:15;99746.66;;;19.37;36.71
19150;BME280;9707;49.158;8.632;2022-12-29T04:33:40;99738.69;;;19.35;36.69
19150;BME280;9707;49.158;8.632;2022-12-29T04:36:05;99750.34;;;19.36;36.60
19150;BME280;9707;49.158;8.632;2022-12-29T04:38:31;99750.34;;;19.36;36.50
19150;BME280;9707;49.158;8.632;2022-12-29T04:40:59;99750.34;;;19.36;36.87
19150;BME280;9707;49.158;8.632;2022-12-29T04:43:25;99736.84;;;19.36;36.82
19150;BME280;9707;49.158;8.632;2022-12-29T04:45:50;99736.84;;;19.36;36.78
19150;BME280;9707;49.158;8.632;2022-12-29T04:48:16;99739.56;;;19.36;36.54
19150;BME280;9707;49.158;8.632;2022-12-29T04:50:41;99737.56;;;19.38;36.65
19150;BME280;9707;49.158;8.632;2022-12-29T04:53:07;99746.41;;;19.40;36.48
19150;BME280;9707;49.158;8.632;2022-12-29T04:55:32;99749.25;;;19.38;36.55
19150;BME280;9707;49.158;8.632;2022-12-29T04:57:58;99748.38;;;19.38;36.34
19150;BME280;9707;49.158;8.632;2022-12-29T05:00:23;99759.28;;;19.36;36.51
19150;BME280;9707;49.158;8.632;2022-12-29T05:02:49;99755.63;;;19.37;36.32
19150;BME280;9707;49.158;8.632;2022-12-29T05:05:14;99757.47;;;19.37;36.45
19150;BME280;9707;49.158;8.632;2022-12-29T05:07:40;99761.88;;;19.38;36.63
19150;BME280;9707;49.158;8.632;2022-12-29T05:10:06;99755.47;;;19.39;36.53
19150;BME280;9707;49.158;8.632;2022-12-29T05:12:33;99764.44;;;19.39;36.45
19150;BME280;9707;49.158;8.632;2022-12-29T05:14:59;99756.34;;;19.39;36.92
19150;BME280;9707;49.158;8.632;2022-12-29T05:17:25;99760.63;;;19.42;36.65
19150;BME280;9707;49.158;8.632;2022-12-29T05:19:50;99760.63;;;19.42;36.67
19150;BME280;9707;49.158;8.632;2022-12-29T05:22:15;99754.34;;;19.41;36.51
19150;BME280;9707;49.158;8.632;2022-12-29T05:24:40;99754.34;;;19.41;36.51
19150;BME280;9707;49.158;8.632;2022-12-29T05:27:06;99758.91;;;19.41;36.53
19150;BME280;9707;49.158;8.632;2022-12-29T05:29:31;99747.13;;;19.42;36.54
19150;BME280;9707;49.158;8.632;2022-12-29T05:31:56;99752.53;;;19.42;36.65
19150;BME280;9707;49.158;8.632;2022-12-29T05:34:22;99748.94;;;19.41;36.51
19150;BME280;9707;49.158;8.632;2022-12-29T05:36:47;99746.13;;;19.43;36.61
19150;BME280;9707;49.158;8.632;2022-12-29T05:39:12;99737.31;;;19.41;36.75
19150;BME280;9707;49.158;8.632;2022-12-29T05:41:37;99735.59;;;19.40;36.67
19150;BME280;9707;49.158;8.632;2022-12-29T05:44:03;99749.13;;;19.40;36.90
19150;BME280;9707;49.158;8.632;2022-12-29T05:46:28;99736.31;;;19.42;36.71
19150;BME280;9707;49.158;8.632;2022-12-29T05:48:54;99745.28;;;19.42;36.84
19150;BME280;9707;49.158;8.632;2022-12-29T05:51:19;99743.31;;;19.44;36.91
19150;BME280;9707;49.158;8.632;2022-12-29T05:53:44;99754.97;;;19.45;36.55
19150;BME280;9707;49.158;8.632;2022-12-29T05:56:09;99752.41;;;19.43;36.86
19150;BME280;9707;49.158;8.632;2022-12-29T05:58:35;99754.97;;;19.45;36.83
19150;BME280;9707;49.158;8.632;2022-12-29T06:01:00;99743.31;;;19.44;36.96
19150;BME280;9707;49.158;8.632;2022-12-29T06:03:25;99737.78;;;19.46;36.83
19150;BME280;9707;49.158;8.632;2022-12-29T06:05:51;99739.50;;;19.47;36.65
19150;BME280;9707;49.158;8.632;2022-12-29T06:08:16;99743.06;;;19.47;36.85
19150;BME280;9707;49.158;8.632;2022-12-29T06:10:41;99733.09;;;19.48;36.78
19150;BME280;9707;49.158;8.632;2022-12-29T06:13:07;99731.38;;;19.47;36.87
19150;BME280;9707;49.158;8.632;2022-12-29T06:15:33;99727.69;;;19.48;37.19
19150;BME280;9707;49.158;8.632;2022-12-29T06:17:58;99736.53;;;19.50;36.75
19150;BME280;9707;49.158;8.632;2022-12-29T06:20:24;99733.84;;;19.50;36.98
19150;BME280;9707;49.158;8.632;2022-12-29T06:22:49;99722.03;;;19.51;36.52
19150;BME280;9707;49.158;8.632;2022-12-29T06:25:15;99729.16;;;19.52;36.98
19150;BME280;9707;49.158;8.632;2022-12-29T06:27:40;99731.97;;;19.50;36.71
19150;BME280;9707;49.158;8.632;2022-12-29T06:30:06;99723.75;;;19.52;36.72
19150;BME280;9707;49.158;8.632;2022-12-29T06:32:32;99720.19;;;19.51;36.68
19150;BME280;9707;49.158;8.632;2022-12-29T06:34:57;99719.34;;;19.51;36.72
19150;BME280;9707;49.158;8.632;2022-12-29T06:37:22;99720.19;;;19.51;37.03
19150;BME280;9707;49.158;8.632;2022-12-29T06:39:47;99712.81;;;19.53;36.91
19150;BME280;9707;49.158;8.632;2022-12-29T06:42:13;99725.31;;;19.54;36.76
19150;BME280;9707;49.158;8.632;2022-12-29T06:44:38;99715.41;;;19.55;36.56
19150;BME280;9707;49.158;8.632;2022-12-29T06:47:03;99710.94;;;19.54;36.69
19150;BME280;9707;49.158;8.632;2022-12-29T06:49:29;99712.69;;;19.55;36.59
19150;BME280;9707;49.158;8.632;2022-12-29T06:51:54;99703.59;;;19.56;36.80
19150;BME280;9707;49.158;8.632;2022-12-29T06:54:19;99694.50;;;19.57;36.76
19150;BME280;9707;49.158;8.632;2022-12-29T06:56:44;99700.59;;;19.59;36.98
19150;BME280;9707;49.158;8.632;2022-12-29T06:59:10;99693.38;;;19.59;36.79
19150;BME280;9707;49.158;8.632;2022-12-29T07:01:35;99698.78;;;19.59;36.46
19150;BME280;9707;49.158;8.632;2022-12-29T07:04:02;99697.91;;;19.59;36.18
19150;BME280;9707;49.158;8.632;2022-12-29T07:06:27;99694.38;;;19.58;36.22
19150;BME280;9707;49.158;8.632;2022-12-29T07:08:53;99708.88;;;19.57;35.96
19150;BME280;9707;49.158;8.632;2022-12-29T07:11:20;99700.88;;;19.56;36.08
19150;BME280;9707;49.158;8.632;2022-12-29T07:13:46;99714.41;;;19.56;36.03
19150;BME280;9707;49.158;8.632;2022-12-29T07:16:11;99719.81;;;19.56;35.99
19150;BME280;9707;49.158;8.632;2022-12-29T07:18:36;99728.91;;;19.55;36.04
19150;BME280;9707;49.158;8.632;2022-12-29T07:21:02;99718.09;;;19.55;36.00
19150;BME280;9707;49.158;8.632;2022-12-29T07:23:28;99735.00;;;19.57;36.40
19150;BME280;9707;49.158;8.632;2022-12-29T07:26:07;99733.19;;;19.57;36.01
19150;BME280;9707;49.158;8.632;2022-12-29T07:28:34;99725.06;;;19.57;35.96
19150;BME280;9707;49.158;8.632;2022-12-29T07:31:00;99731.31;;;19.58;35.91
19150;BME280;9707;49.158;8.632;2022-12-29T07:33:28;99731.31;;;19.58;35.79
19150;BME280;9707;49.158;8.632;2022-12-29T07:35:54;99725.78;;;19.59;35.80
19150;BME280;9707;49.158;8.632;2022-12-29T07:38:19;99725.78;;;19.59;35.87
19150;BME280;9707;49.158;8.632;2022-12-29T07:40:44;99736.59;;;19.59;36.26
19150;BME280;9707;49.158;8.632;2022-12-29T07:43:09;99741.00;;;19.60;35.94
19150;BME280;9707;49.158;8.632;2022-12-29T07:45:35;99739.31;;;19.59;35.56
19150;BME280;9707;49.158;8.632;2022-12-29T07:48:00;99735.72;;;19.59;35.25
19150;BME280;9707;49.158;8.632;2022-12-29T07:50:27;99733.19;;;19.57;35.15
19150;BME280;9707;49.158;8.632;2022-12-29T07:52:53;99734.88;;;19.58;35.31
19150;BME280;9707;49.158;8.632;2022-12-29T07:55:18;99728.63;;;19.58;35.47
19150;BME280;9707;49.158;8.632;2022-12-29T07:57:43;99734.03;;;19.58;35.04
19150;BME280;9707;49.158;8.632;2022-12-29T08:00:09;99747.66;;;19.56;35.24
19150;BME280;9707;49.158;8.632;2022-12-29T08:02:35;99739.44;;;19.58;35.22
19150;BME280;9707;49.158;8.632;2022-12-29T08:05:01;99750.22;;;19.58;35.16
19150;BME280;9707;49.158;8.632;2022-12-29T08:07:26;99744.81;;;19.58;35.35
19150;BME280;9707;49.158;8.632;2022-12-29T08:09:52;99739.31;;;19.59;35.10
19150;BME280;9707;49.158;8.632;2022-12-29T08:12:17;99746.53;;;19.59;35.33
19150;BME280;9707;49.158;8.632;2022-12-29T08:14:42;99757.34;;;19.59;35.02
19150;BME280;9707;49.158;8.632;2022-12-29T08:17:08;99758.22;;;19.59;35.31
19150;BME280;9707;49.158;8.632;2022-12-29T08:19:33;99754.50;;;19.60;34.93
19150;BME280;9707;49.158;8.632;2022-12-29T08:21:58;99760.78;;;19.61;34.89
19150;BME280;9707;49.158;8.632;2022-12-29T08:24:24;99768.88;;;19.61;35.07
19150;BME280;9707;49.158;8.632;2022-12-29T08:26:49;99784.97;;;19.62;35.48
19150;BME280;9707;49.158;8.632;2022-12-29T08:29:14;99780.41;;;19.63;35.01
19150;BME280;9707;49.158;8.632;2022-12-29T08:31:39;99784.97;;;19.62;35.04
19150;BME280;9707;49.158;8.632;2022-12-29T08:34:05;99783.00;;;19.64;35.31
19150;BME280;9707;49.158;8.632;2022-12-29T08:36:30;99787.41;;;19.65;35.26
19150;BME280;9707;49.158;8.632;2022-12-29T08:38:56;99792.69;;;19.67;35.13
19150;BME280;9707;49.158;8.632;2022-12-29T08:41:22;99791.69;;;19.68;35.31
19150;BME280;9707;49.158;8.632;2022-12-29T08:43:48;99784.31;;;19.70;35.12
19150;BME280;9707;49.158;8.632;2022-12-29T08:46:14;99798.69;;;19.70;35.05
19150;BME280;9707;49.158;8.632;2022-12-29T08:48:39;99791.56;;;19.69;35.17
19150;BME280;9707;49.158;8.632;2022-12-29T08:51:05;99800.53;;;19.70;34.99
19150;BME280;9707;49.158;8.632;2022-12-29T08:53:30;99787.03;;;19.70;34.89
19150;BME280;9707;49.158;8.632;2022-12-29T08:55:58;99802.38;;;19.69;34.71
19150;BME280;9707;49.158;8.632;2022-12-29T08:58:26;99804.19;;;19.69;34.85
19150;BME280;9707;49.158;8.632;2022-12-29T09:00:56;99815.00;;;19.69;35.05
19150;BME280;9707;49.158;8.632;2022-12-29T09:03:22;99800.66;;;19.68;34.73
19150;BME280;9707;49.158;8.632;2022-12-29T09:05:52;99804.34;;;19.67;34.72
19150;BME280;9707;49.158;8.632;2022-12-29T09:08:18;99807.91;;;19.68;34.93
19150;BME280;9707;49.158;8.632;2022-12-29T09:10:44;99808.66;;;19.70;34.98
19150;BME280;9707;49.158;8.632;2022-12-29T09:13:11;99804.94;;;19.71;35.29
19150;BME280;9707;49.158;8.632;2022-12-29T09:15:37;99807.53;;;19.72;35.07
19150;BME280;9707;49.158;8.632;2022-12-29T09:18:02;99803.84;;;19.73;35.05
19150;BME280;9707;49.158;8.632;2022-12-29T09:20:28;99817.22;;;19.75;34.85
19150;BME280;9707;49.158;8.632;2022-12-29T09:22:53;99809.13;;;19.75;34.98
19150;BME280;9707;49.158;8.632;2022-12-29T09:25:18;99817.22;;;19.75;35.16
19150;BME280;9707;49.158;8.632;2022-12-29T09:27:44;99813.53;;;19.76;35.06
19150;BME280;9707;49.158;8.632;2022-12-29T09:30:11;99818.94;;;19.76;34.96
19150;BME280;9707;49.158;8.632;2022-12-29T09:32:37;99823.34;;;19.77;35.03
19150;BME280;9707;49.158;8.632;2022-12-29T09:35:02;99827.88;;;19.76;35.08
19150;BME280;9707;49.158;8.632;2022-12-29T09:37:28;99834.84;;;19.79;35.38
19150;BME280;9707;49.158;8.632;2022-12-29T09:39:53;99826.75;;;19.79;35.35
19150;BME280;9707;49.158;8.632;2022-12-29T09:47:25;99838.31;;;19.81;35.62
19150;BME280;9707;49.158;8.632;2022-12-29T09:52:48;99856.47;;;19.79;35.57
19150;BME280;9707;49.158;8.632;2022-12-29T09:55:20;99853.78;;;19.79;35.55
19150;BME280;9707;49.158;8.632;2022-12-29T09:57:51;99860.19;;;19.78;35.72
19150;BME280;9707;49.158;8.632;2022-12-29T10:00:23;99861.16;;;19.77;36.02
19150;BME280;9707;49.158;8.632;2022-12-29T10:02:55;99856.47;;;19.79;36.10
19150;BME280;9707;49.158;8.632;2022-12-29T10:10:28;99864.34;;;19.82;35.98
19150;BME280;9707;49.158;8.632;2022-12-29T10:13:01;99869.88;;;19.80;36.29
19150;BME280;9707;49.158;8.632;2022-12-29T10:15:40;99871.34;;;19.84;36.67
19150;BME280;9707;49.158;8.632;2022-12-29T10:18:46;99856.56;;;19.88;36.60
19150;BME280;9707;49.158;8.632;2022-12-29T10:23:51;99861.19;;;19.97;36.64
19150;BME280;9707;49.158;8.632;2022-12-29T10:26:19;99872.63;;;20.01;36.43
19150;BME280;9707;49.158;8.632;2022-12-29T10:28:59;99857.22;;;20.01;36.42
19150;BME280;9707;49.158;8.632;2022-12-29T10:36:46;99876.81;;;19.94;36.99
19150;BME280;9707;49.158;8.632;2022-12-29T10:39:22;99870.56;;;19.93;37.31
19150;BME280;9707;49.158;8.632;2022-12-29T10:44:30;99872.63;;;19.90;37.20
19150;BME280;9707;49.158;8.632;2022-12-29T10:46:59;99874.63;;;19.88;37.62
19150;BME280;9707;49.158;8.632;2022-12-29T10:49:28;99863.09;;;19.86;37.78
19150;BME280;9707;49.158;8.632;2022-12-29T10:51:58;99860.41;;;19.86;37.55
19150;BME280;9707;49.158;8.632;2022-12-29T10:54:50;99873.03;;;19.85;37.71
19150;BME280;9707;49.158;8.632;2022-12-29T10:59:42;99878.56;;;19.84;37.86
19150;BME280;9707;49.158;8.632;2022-12-29T11:07:21;99851.53;;;19.84;38.16
19150;BME280;9707;49.158;8.632;2022-12-29T11:09:46;99855.25;;;19.83;38.24
19150;BME280;9707;49.158;8.632;2022-12-29T11:12:22;99860.25;;;19.87;38.26
19150;BME280;9707;49.158;8.632;2022-12-29T11:20:30;99852.59;;;19.92;38.53
19150;BME280;9707;49.158;8.632;2022-12-29T11:22:57;99861.47;;;19.94;38.51
19150;BME280;9707;49.158;8.632;2022-12-29T11:25:22;99858.63;;;19.96;38.44
19150;BME280;9707;49.158;8.632;2022-12-29T11:28:03;99855.78;;;19.97;38.72
19150;BME280;9707;49.158;8.632;2022-12-29T11:30:37;99872.00;;;19.97;38.34
19150;BME280;9707;49.158;8.632;2022-12-29T11:33:05;99885.38;;;19.99;38.38
19150;BME280;9707;49.158;8.632;2022-12-29T11:38:00;99878.03;;;20.01;38.20
19150;BME280;9707;49.158;8.632;2022-12-29T11:40:26;99869.75;;;20.02;38.27
19150;BME280;9707;49.158;8.632;2022-12-29T11:42:55;99869.75;;;20.02;38.27
19150;BME280;9707;49.158;8.632;2022-12-29T11:45:24;99866.91;;;20.04;38.36
19150;BME280;9707;49.158;8.632;2022-12-29T11:47:53;99861.50;;;20.04;38.34
19150;BME280;9707;49.158;8.632;2022-12-29T11:50:29;99866.66;;;20.07;38.33
19150;BME280;9707;49.158;8.632;2022-12-29T11:53:19;99861.25;;;20.07;37.92
19150;BME280;9707;49.158;8.632;2022-12-29T11:55:58;99857.59;;;20.08;38.17
19150;BME280;9707;49.158;8.632;2022-12-29T11:58:43;99852.19;;;20.08;38.04
19150;BME280;9707;49.158;8.632;2022-12-29T12:01:34;99845.78;;;20.09;38.07
19150;BME280;9707;49.158;8.632;2022-12-29T12:04:04;99842.09;;;20.10;37.98
19150;BME280;9707;49.158;8.632;2022-12-29T12:06:33;99850.94;;;20.12;38.21
19150;BME280;9707;49.158;8.632;2022-12-29T12:09:06;99831.88;;;20.13;37.86
19150;BME280;9707;49.158;8.632;2022-12-29T12:11:34;99842.56;;;20.15;37.84
19150;BME280;9707;49.158;8.632;2022-12-29T12:14:23;99835.31;;;20.15;37.85
19150;BME280;9707;49.158;8.632;2022-12-29T12:19:39;99827.06;;;20.17;37.99
19150;BME280;9707;49.158;8.632;2022-12-29T12:22:17;99835.19;;;20.17;38.00
19150;BME280;9707;49.158;8.632;2022-12-29T12:25:29;99832.47;;;20.17;37.91
19150;BME280;9707;49.158;8.632;2022-12-29T12:28:19;99808.13;;;20.17;37.87
19150;BME280;9707;49.158;8.632;2022-12-29T12:30:49;99815.13;;;20.19;37.92
19150;BME280;9707;49.158;8.632;2022-12-29T12:33:21;99826.66;;;20.21;37.77
19150;BME280;9707;49.158;8.632;2022-12-29T12:36:12;99804.19;;;20.21;37.67
19150;BME280;9707;49.158;8.632;2022-12-29T12:41:12;99819.53;;;20.20;37.44
19150;BME280;9707;49.158;8.632;2022-12-29T12:43:45;99820.41;;;20.21;36.88
19150;BME280;9707;49.158;8.632;2022-12-29T12:46:23;99822.38;;;20.19;37.08
19150;BME280;9707;49.158;8.632;2022-12-29T12:57:22;99807.28;;;20.16;36.59
19150;BME280;9707;49.158;8.632;2022-12-29T13:16:12;99814.91;;;20.11;36.71
19150;BME280;9707;49.158;8.632;2022-12-29T13:24:02;99807.69;;;20.12;37.00
19150;BME280;9707;49.158;8.632;2022-12-29T13:32:21;99813.81;;;20.14;37.14
19150;BME280;9707;49.158;8.632;2022-12-29T13:37:45;99817.25;;;20.16;37.29
19150;BME280;9707;49.158;8.632;2022-12-29T13:40:18;99798.31;;;20.16;37.41
19150;BME280;9707;49.158;8.632;2022-12-29T13:42:45;99815.25;;;20.18;37.16
19150;BME280;9707;49.158;8.632;2022-12-29T13:45:17;99811.56;;;20.19;37.18
19150;BME280;9707;49.158;8.632;2022-12-29T13:50:21;99813.25;;;20.20;37.36
19150;BME280;9707;49.158;8.632;2022-12-29T13:55:42;99818.81;;;20.18;37.26
19150;BME280;9707;49.158;8.632;2022-12-29T13:58:22;99817.97;;;20.18;37.48
19150;BME280;9707;49.158;8.632;2022-12-29T14:12:24;99832.47;;;20.17;37.76
19150;BME280;9707;49.158;8.632;2022-12-29T14:14:53;99843.28;;;20.17;37.87
19150;BME280;9707;49.158;8.632;2022-12-29T14:17:20;99853.13;;;20.18;37.76
19150;BME280;9707;49.158;8.632;2022-12-29T14:19:47;99846.00;;;20.17;37.61
19150;BME280;9707;49.158;8.632;2022-12-29T14:22:23;99854.13;;;20.17;37.62
19150;BME280;9707;49.158;8.632;2022-12-29T14:24:49;99856.81;;;20.17;37.77
19150;BME280;9707;49.158;8.632;2022-12-29T14:34:45;99865.19;;;20.14;38.26
19150;BME280;9707;49.158;8.632;2022-12-29T14:37:27;99868.75;;;20.14;38.39
19150;BME280;9707;49.158;8.632;2022-12-29T14:42:29;99874.03;;;20.16;39.06
19150;BME280;9707;49.158;8.632;2022-12-29T14:45:02;99876.75;;;20.16;39.09
19150;BME280;9707;49.158;8.632;2022-12-29T14:50:06;99884.09;;;20.14;39.20
19150;BME280;9707;49.158;8.632;2022-12-29T14:53:02;99883.38;;;20.12;39.44
19150;BME280;9707;49.158;8.632;2022-12-29T14:55:46;99885.22;;;20.11;39.53
19150;BME280;9707;49.158;8.632;2022-12-29T14:58:20;99900.63;;;20.11;39.60
19150;BME280;9707;49.158;8.632;2022-12-29T15:00:47;99904.28;;;20.10;39.80
19150;BME280;9707;49.158;8.632;2022-12-29T15:05:51;99914.38;;;20.08;39.82
19150;BME280;9707;49.158;8.632;2022-12-29T15:08:20;99918.91;;;20.07;39.90
19150;BME280;9707;49.158;8.632;2022-12-29T15:11:09;99932.44;;;20.07;39.77
19150;BME280;9707;49.158;8.632;2022-12-29T15:13:40;99933.53;;;20.05;39.92
19150;BME280;9707;49.158;8.632;2022-12-29T15:16:25;99899.38;;;20.04;39.87
19150;BME280;9707;49.158;8.632;2022-12-29T15:18:52;99879.72;;;20.02;39.71
19150;BME280;9707;49.158;8.632;2022-12-29T15:21:23;99881.44;;;20.03;39.96
19150;BME280;9707;49.158;8.632;2022-12-29T15:23:49;99887.56;;;20.05;39.86
19150;BME280;9707;49.158;8.632;2022-12-29T15:26:14;99893.72;;;20.07;39.84
19150;BME280;9707;49.158;8.632;2022-12-29T15:28:46;99890.91;;;20.08;39.93
19150;BME280;9707;49.158;8.632;2022-12-29T15:33:42;99918.78;;;20.09;39.77
19150;BME280;9707;49.158;8.632;2022-12-29T15:36:13;99922.25;;;20.11;40.03
19150;BME280;9707;49.158;8.632;2022-12-29T15:38:39;99906.84;;;20.11;39.94
19150;BME280;9707;49.158;8.632;2022-12-29T15:41:35;99898.75;;;20.11;40.02
19150;BME280;9707;49.158;8.632;2022-12-29T15:44:27;99915.97;;;20.10;40.01
19150;BME280;9707;49.158;8.632;2022-12-29T15:46:53;99920.38;;;20.11;40.14
19150;BME280;9707;49.158;8.632;2022-12-29T15:49:20;99928.50;;;20.11;39.99
19150;BME280;9707;49.158;8.632;2022-12-29T15:51:45;99933.06;;;20.11;40.10